Don Miguel Hidalgo Y Costilla International Airport
MMGL : rendu visible

Aérodrome :











RETROUVEZ-NOUS SUR...

 
LOGIN :

S'inscrire | Disclaimer

   EN    FR    IT 

 









Légende :    VFR   VFR Marginal   IFR   IFR Intensif   IFR Très Intensif
Visi : 
Plafond : 
>= 8 km
>= 3000ft
5 à 8 km
1000 à 3000 ft
1500m à 5 km
500 à 1000 ft
800 à 1500m
200 à 500 ft
< 800m
< 200 ft
Symboles :   Orages  Brouillard  Fortes neiges  Fortes précipitations  Vent > 20 kt






- Altitude de l'aérodrome : 5016 ft
- Code IATA : GDL


MMGL - Don Miguel Hidalgo Y Costilla International

DERNIER METAR :
  • 250946Z 11004KT 7SM -RA FEW010 BKN020 OVC080 18/15 A3016 RMK 60015 8/57/ -RA B38

METARs EXPIRÉS :
  • 250903Z RTD 00000KT 7SM FEW010 BKN020 18/16 A3018 RMK 8/500
  • 250740Z 00000KT 7SM FEW010 BKN020 18/15 A3020 RMK 8/500

TAF TAF MMGL
Valide du 25 à 06h jusqu'au 26 à 12h UTC


250308Z 2506/2612 32010KT P6SM VC RA SCT015CB TX28/2521Z TN15/2512Z
TEMPO 2506/2509 4SM TSRA BKN015CB
FM251200 12005KT 3SM BR OVC010
TEMPO 2512/2515 1SM BR OVC008
FM251600 00000KT 4SM HZ SCT015 SCT100
FM251800 22010KT P6SM SCT015CB BKN100
TEMPO 2522/2602 2SM TSRA OVC010CB
FM260600 32010KT P6SM -RA BKN015CB OVC080
FIR MMFR / Amérique du Nord



MET'MAP, la Météo Aéronautique d'un coup d'oeil ! - Copyright ORBIFLY Décembre 2007 - Disclaimer

ORBIFLY MET'MAP TEAM :

Programmation & Développement : Alexandra Zaïnal
Sur une idée originale de : Baudouin d'Aumeries
Assistance à la programmation : Marc-Olivier Méhu
Soutien technique & logistique : Manuel Goepfert

Contact : metmap@orbifly.com




SOURCES & CREDITS :

   NOAA       Earth
Advisory